Time;durP1;ratioP1;P1;durP2;ratioP2;P2;SDS_P1;SDS_P2;PMS_P1;PMS_P2;Temp;Humidity;BMP_temperature;BMP_pressure;BME280_temperature;BME280_humidity;BME280_pressure;Samples;Min_cycle;Max_cycle;Signal;HPM_P1;HPM_P2
2022/05/22 00:02:04;;;;;;;4.72;2.65;;;;;;;;;;5026468;28;20029;-39
2022/05/22 00:04:29;;;;;;;3.58;2.25;;;;;;;;;;5032937;28;20400;-39
2022/05/22 00:06:55;;;;;;;2.72;2.47;;;;;;;;;;5034198;28;20028;-40
2022/05/22 00:09:20;;;;;;;3.50;2.40;;;;;;;;;;5034189;28;20039;-39
2022/05/22 00:11:46;;;;;;;5.30;1.98;;;;;;;;;;5034569;28;20021;-39
2022/05/22 00:14:14;;;;;;;3.40;2.30;;;;;;;;;;5034072;28;20107;-39
2022/05/22 00:16:40;;;;;;;5.00;2.40;;;;;;;;;;5034100;28;20027;-39
2022/05/22 00:19:12;;;;;;;2.92;2.20;;;;;;;;;;5034071;28;20381;-39
2022/05/22 00:21:38;;;;;;;3.40;2.65;;;;;;;;;;5033833;28;20075;-39
2022/05/22 00:24:04;;;;;;;4.10;2.00;;;;;;;;;;5033033;28;20066;-39
2022/05/22 00:26:29;;;;;;;3.60;2.15;;;;;;;;;;5034009;28;20029;-39
2022/05/22 00:28:55;;;;;;;2.47;2.05;;;;;;;;;;5032760;28;20024;-39
2022/05/22 00:31:20;;;;;;;8.45;1.95;;;;;;;;;;5034175;28;20464;-39
2022/05/22 00:33:45;;;;;;;2.63;2.38;;;;;;;;;;5033806;28;20053;-39
2022/05/22 00:36:12;;;;;;;2.53;2.03;;;;;;;;;;5033552;28;20557;-40
2022/05/22 00:38:37;;;;;;;4.75;2.42;;;;;;;;;;5032618;28;20021;-39
2022/05/22 00:41:04;;;;;;;4.88;2.47;;;;;;;;;;5032653;28;20067;-39
2022/05/22 00:43:34;;;;;;;5.60;2.40;;;;;;;;;;5032445;28;20028;-39
2022/05/22 00:46:00;;;;;;;2.60;1.90;;;;;;;;;;5032278;28;20032;-40
2022/05/22 00:48:26;;;;;;;5.82;2.20;;;;;;;;;;5032368;28;20017;-39
2022/05/22 00:50:55;;;;;;;4.05;2.08;;;;;;;;;;5031963;28;20018;-39
2022/05/22 00:53:21;;;;;;;6.05;2.20;;;;;;;;;;5033733;28;20043;-39
2022/05/22 00:55:46;;;;;;;3.08;2.00;;;;;;;;;;5032415;28;20383;-39
2022/05/22 00:58:14;;;;;;;3.45;2.40;;;;;;;;;;5032236;28;20108;-39
2022/05/22 01:00:40;;;;;;;3.28;2.33;;;;;;;;;;5033364;28;20021;-39
2022/05/22 01:03:28;;;;;;;3.30;2.30;;;;;;;;;;5031576;28;20535;-39
2022/05/22 01:05:54;;;;;;;3.88;1.98;;;;;;;;;;5032194;28;20376;-39
2022/05/22 01:08:19;;;;;;;6.40;2.20;;;;;;;;;;5033172;28;20083;-39
2022/05/22 01:10:46;;;;;;;2.05;1.85;;;;;;;;;;5031937;28;20045;-39
2022/05/22 01:13:12;;;;;;;1.80;1.65;;;;;;;;;;5031794;28;20033;-39
2022/05/22 01:15:38;;;;;;;3.63;2.35;;;;;;;;;;5033174;28;20036;-39
2022/05/22 01:18:03;;;;;;;2.72;2.28;;;;;;;;;;5031565;28;20112;-39
2022/05/22 01:20:28;;;;;;;3.47;2.50;;;;;;;;;;5033224;28;20017;-39
2022/05/22 01:22:54;;;;;;;6.95;2.38;;;;;;;;;;5031897;28;20425;-39
2022/05/22 01:25:19;;;;;;;3.13;2.40;;;;;;;;;;5033362;28;20105;-39
2022/05/22 01:27:44;;;;;;;5.30;1.90;;;;;;;;;;5033047;28;20480;-39
2022/05/22 01:30:18;;;;;;;2.67;2.15;;;;;;;;;;5032867;28;20460;-39
2022/05/22 01:32:44;;;;;;;3.42;2.17;;;;;;;;;;5032690;28;20051;-39
2022/05/22 01:35:12;;;;;;;4.43;2.42;;;;;;;;;;5031736;28;20026;-39
2022/05/22 01:37:37;;;;;;;2.90;2.10;;;;;;;;;;5031872;28;20372;-39
2022/05/22 01:40:03;;;;;;;2.83;2.00;;;;;;;;;;5031646;28;20017;-39
2022/05/22 01:42:29;;;;;;;2.33;2.13;;;;;;;;;;5032645;28;20456;-39
2022/05/22 01:44:54;;;;;;;4.03;2.80;;;;;;;;;;5032817;28;20022;-39
2022/05/22 01:47:20;;;;;;;4.50;2.58;;;;;;;;;;5032549;28;20021;-39
2022/05/22 01:49:45;;;;;;;2.88;2.10;;;;;;;;;;5031565;28;20026;-39
2022/05/22 01:52:10;;;;;;;4.82;2.35;;;;;;;;;;5032603;28;20028;-39
2022/05/22 01:54:36;;;;;;;5.95;2.45;;;;;;;;;;5031498;28;20034;-39
2022/05/22 01:57:02;;;;;;;3.40;2.53;;;;;;;;;;5032553;28;20464;-39
2022/05/22 01:59:27;;;;;;;8.95;2.97;;;;;;;;;;5032562;28;20025;-39
2022/05/22 02:01:53;;;;;;;5.65;2.97;;;;;;;;;;5032435;28;20366;-38
2022/05/22 02:04:18;;;;;;;7.85;2.80;;;;;;;;;;5032515;28;20017;-39
2022/05/22 02:09:28;;;;;;;7.68;3.00;;;;;;;;;;5032506;28;20603;-39
2022/05/22 02:11:53;;;;;;;4.28;2.78;;;;;;;;;;5032923;28;20048;-39
2022/05/22 02:14:19;;;;;;;3.72;2.70;;;;;;;;;;5031113;28;20033;-39
2022/05/22 02:16:45;;;;;;;7.63;3.10;;;;;;;;;;5035348;28;20103;-39
2022/05/22 02:19:10;;;;;;;6.13;2.65;;;;;;;;;;5035216;28;20068;-39
2022/05/22 02:21:36;;;;;;;4.50;2.80;;;;;;;;;;5036362;28;20018;-39
2022/05/22 02:24:01;;;;;;;5.18;2.78;;;;;;;;;;5018644;28;20535;-39
2022/05/22 02:26:26;;;;;;;5.32;2.47;;;;;;;;;;5036165;28;20032;-39
2022/05/22 02:28:52;;;;;;;2.97;2.20;;;;;;;;;;5036176;28;20072;-39
2022/05/22 02:31:17;;;;;;;4.78;2.13;;;;;;;;;;5034594;28;20388;-38
2022/05/22 02:33:42;;;;;;;7.70;3.00;;;;;;;;;;5036238;28;20538;-38
2022/05/22 02:36:10;;;;;;;3.45;2.60;;;;;;;;;;5034857;28;20479;-38
2022/05/22 02:38:36;;;;;;;9.18;3.10;;;;;;;;;;5035986;28;20025;-38
2022/05/22 02:41:08;;;;;;;7.93;3.85;;;;;;;;;;5034654;28;20032;-38
2022/05/22 02:43:33;;;;;;;4.95;3.05;;;;;;;;;;5035821;28;20030;-39
2022/05/22 02:45:59;;;;;;;6.18;3.42;;;;;;;;;;5034431;28;20025;-38
2022/05/22 02:48:24;;;;;;;4.57;3.03;;;;;;;;;;5034751;28;20460;-38
2022/05/22 02:50:49;;;;;;;7.40;3.58;;;;;;;;;;5035763;28;20018;-38
2022/05/22 02:53:15;;;;;;;8.15;3.75;;;;;;;;;;5034495;28;20064;-38
2022/05/22 02:55:43;;;;;;;8.80;2.90;;;;;;;;;;5036010;28;20025;-39
2022/05/22 02:58:09;;;;;;;14.55;3.17;;;;;;;;;;5035496;28;20017;-39
2022/05/22 03:00:34;;;;;;;7.25;3.40;;;;;;;;;;5035525;28;20357;-39
2022/05/22 03:03:00;;;;;;;8.15;3.83;;;;;;;;;;5034580;28;20017;-39
2022/05/22 03:05:26;;;;;;;10.38;4.35;;;;;;;;;;5035586;28;20471;-37
2022/05/22 03:07:52;;;;;;;4.15;2.75;;;;;;;;;;5035635;28;20018;-37
2022/05/22 03:10:17;;;;;;;3.65;2.60;;;;;;;;;;5034116;28;20399;-38
2022/05/22 03:12:43;;;;;;;3.65;2.92;;;;;;;;;;5035710;28;20528;-38
2022/05/22 03:15:09;;;;;;;10.70;3.20;;;;;;;;;;5035032;28;20043;-38
2022/05/22 03:17:34;;;;;;;4.13;2.65;;;;;;;;;;5035523;28;20029;-38
2022/05/22 03:20:00;;;;;;;7.60;3.10;;;;;;;;;;5035153;28;20105;-38
2022/05/22 03:22:25;;;;;;;12.63;2.90;;;;;;;;;;5033989;28;20025;-38
2022/05/22 03:24:51;;;;;;;3.83;2.80;;;;;;;;;;5033894;28;20025;-38
2022/05/22 03:27:17;;;;;;;4.70;2.70;;;;;;;;;;5033428;28;20021;-38
2022/05/22 03:29:43;;;;;;;6.57;2.53;;;;;;;;;;5033656;28;20091;-38
2022/05/22 03:32:09;;;;;;;3.15;2.28;;;;;;;;;;5033893;28;20468;-38
2022/05/22 03:34:34;;;;;;;3.65;2.33;;;;;;;;;;5033515;28;20056;-38
2022/05/22 03:37:00;;;;;;;3.78;2.10;;;;;;;;;;5033618;28;20029;-38
2022/05/22 03:39:26;;;;;;;5.63;2.75;;;;;;;;;;5033801;28;20021;-38
2022/05/22 03:41:52;;;;;;;4.80;2.20;;;;;;;;;;5034890;28;20049;-38
2022/05/22 03:44:17;;;;;;;4.65;3.28;;;;;;;;;;5033339;28;20022;-38
2022/05/22 03:46:44;;;;;;;6.18;2.10;;;;;;;;;;5033355;28;20021;-38
2022/05/22 03:49:10;;;;;;;2.85;2.17;;;;;;;;;;5033663;28;20021;-38
2022/05/22 03:51:35;;;;;;;5.15;2.33;;;;;;;;;;5034553;28;20487;-38
2022/05/22 03:54:01;;;;;;;3.65;2.10;;;;;;;;;;5033393;28;20033;-39
2022/05/22 03:56:26;;;;;;;4.82;2.42;;;;;;;;;;5029837;28;20457;-38
2022/05/22 03:58:52;;;;;;;3.97;1.95;;;;;;;;;;5013286;28;20499;-38
2022/05/22 04:01:17;;;;;;;3.08;2.22;;;;;;;;;;5014502;28;20026;-38
2022/05/22 04:03:42;;;;;;;2.83;2.13;;;;;;;;;;5013617;28;20032;-38
2022/05/22 04:06:09;;;;;;;4.43;2.15;;;;;;;;;;5013556;28;20526;-38
2022/05/22 04:08:35;;;;;;;4.32;2.33;;;;;;;;;;5014632;28;20033;-38
2022/05/22 04:11:05;;;;;;;3.10;2.20;;;;;;;;;;5013229;28;20026;-38
2022/05/22 04:13:31;;;;;;;3.38;2.08;;;;;;;;;;5014347;28;20034;-39
2022/05/22 04:15:56;;;;;;;2.42;1.67;;;;;;;;;;5014302;28;20029;-38
2022/05/22 04:18:21;;;;;;;4.53;2.08;;;;;;;;;;5014379;28;20526;-38
2022/05/22 04:20:47;;;;;;;2.83;1.85;;;;;;;;;;5014335;28;20566;-39
2022/05/22 04:25:57;;;;;;;3.45;1.70;;;;;;;;;;5014161;28;20396;-39
2022/05/22 04:28:23;;;;;;;2.78;2.10;;;;;;;;;;5012473;28;20117;-39
2022/05/22 04:30:49;;;;;;;2.25;1.75;;;;;;;;;;5014143;28;20553;-38
2022/05/22 04:33:14;;;;;;;1.90;1.67;;;;;;;;;;4996218;28;20081;-38
2022/05/22 04:35:40;;;;;;;3.13;1.73;;;;;;;;;;5012786;28;20014;-38
2022/05/22 04:38:05;;;;;;;5.15;1.88;;;;;;;;;;5012145;28;20029;-38
2022/05/22 04:40:31;;;;;;;2.92;1.70;;;;;;;;;;5012629;28;20029;-38
2022/05/22 04:42:56;;;;;;;8.85;2.25;;;;;;;;;;5012494;28;20029;-39
2022/05/22 04:45:21;;;;;;;4.40;2.72;;;;;;;;;;5012793;28;20030;-39
2022/05/22 04:47:47;;;;;;;5.57;1.90;;;;;;;;;;5012775;28;20033;-38
2022/05/22 04:50:12;;;;;;;3.47;2.17;;;;;;;;;;5012588;28;20436;-38
2022/05/22 04:52:38;;;;;;;2.45;2.00;;;;;;;;;;5012495;28;20030;-38
2022/05/22 04:55:04;;;;;;;1.98;1.48;;;;;;;;;;5025310;28;20055;-39
2022/05/22 04:57:29;;;;;;;5.05;2.08;;;;;;;;;;5033207;28;20057;-38
2022/05/22 04:59:55;;;;;;;4.15;1.85;;;;;;;;;;5032282;28;20075;-39
2022/05/22 05:02:21;;;;;;;7.03;2.15;;;;;;;;;;5032321;28;20495;-39
2022/05/22 05:04:47;;;;;;;2.10;1.65;;;;;;;;;;5033412;28;20453;-39
2022/05/22 05:07:12;;;;;;;1.88;1.58;;;;;;;;;;5033398;28;20063;-39
2022/05/22 05:09:38;;;;;;;5.28;1.60;;;;;;;;;;5033159;28;20018;-39
2022/05/22 05:12:05;;;;;;;6.53;2.42;;;;;;;;;;5031928;28;20452;-39
2022/05/22 05:14:30;;;;;;;4.15;1.70;;;;;;;;;;5031722;28;20468;-39
2022/05/22 05:16:56;;;;;;;4.07;1.83;;;;;;;;;;5033255;28;20028;-39
2022/05/22 05:19:21;;;;;;;5.97;2.08;;;;;;;;;;5031934;28;20448;-39
2022/05/22 05:21:47;;;;;;;4.38;1.80;;;;;;;;;;5033090;28;20033;-39
2022/05/22 05:24:12;;;;;;;3.25;1.55;;;;;;;;;;5032999;28;20025;-39
2022/05/22 05:26:38;;;;;;;5.07;1.77;;;;;;;;;;5033239;28;20035;-39
2022/05/22 05:29:03;;;;;;;2.65;1.35;;;;;;;;;;5031526;28;20479;-39
2022/05/22 05:31:28;;;;;;;9.75;1.85;;;;;;;;;;5031985;28;20068;-39
2022/05/22 05:33:54;;;;;;;3.28;1.75;;;;;;;;;;5032639;28;20046;-39
2022/05/22 05:36:19;;;;;;;4.07;1.50;;;;;;;;;;5033193;28;20018;-39
2022/05/22 05:38:45;;;;;;;2.35;1.60;;;;;;;;;;5033151;28;20026;-39
2022/05/22 05:41:11;;;;;;;2.58;1.70;;;;;;;;;;5032878;28;20028;-38
2022/05/22 05:43:37;;;;;;;2.00;1.35;;;;;;;;;;5032709;28;20021;-38
2022/05/22 05:46:03;;;;;;;5.68;1.55;;;;;;;;;;5032914;28;20072;-41
2022/05/22 05:48:28;;;;;;;2.80;1.40;;;;;;;;;;5031648;28;20389;-38
2022/05/22 05:50:55;;;;;;;2.53;1.45;;;;;;;;;;5035791;28;20449;-38
2022/05/22 05:53:21;;;;;;;2.28;1.60;;;;;;;;;;5036531;28;20029;-38
2022/05/22 05:55:47;;;;;;;3.30;1.52;;;;;;;;;;5035486;28;20017;-38
2022/05/22 05:58:12;;;;;;;3.72;1.25;;;;;;;;;;5036589;28;20470;-38
2022/05/22 06:00:38;;;;;;;3.03;1.30;;;;;;;;;;5036700;28;20094;-38
2022/05/22 06:03:03;;;;;;;3.38;1.40;;;;;;;;;;5036616;28;20134;-38
2022/05/22 06:05:29;;;;;;;3.60;1.80;;;;;;;;;;5036635;28;20025;-38
2022/05/22 06:07:54;;;;;;;2.30;1.33;;;;;;;;;;5036664;28;20018;-38
2022/05/22 06:10:20;;;;;;;6.50;1.45;;;;;;;;;;5036614;28;20022;-38
2022/05/22 06:12:46;;;;;;;5.95;1.90;;;;;;;;;;5035141;28;20032;-38
2022/05/22 06:15:12;;;;;;;2.05;1.75;;;;;;;;;;5036253;28;20416;-38
2022/05/22 06:17:38;;;;;;;2.28;1.20;;;;;;;;;;5036589;28;20670;-38
2022/05/22 06:20:06;;;;;;;3.72;1.88;;;;;;;;;;5036330;28;20025;-38
2022/05/22 06:22:32;;;;;;;2.97;1.38;;;;;;;;;;5035068;28;20452;-38
2022/05/22 06:24:57;;;;;;;4.82;1.30;;;;;;;;;;5035087;28;20388;-38
2022/05/22 06:27:23;;;;;;;5.90;1.50;;;;;;;;;;5034683;28;20028;-38
2022/05/22 06:29:49;;;;;;;2.08;1.40;;;;;;;;;;5036462;28;20099;-39
2022/05/22 06:32:15;;;;;;;2.00;1.42;;;;;;;;;;5035117;28;20060;-39
2022/05/22 06:34:41;;;;;;;11.02;1.60;;;;;;;;;;5034403;28;20172;-39
2022/05/22 06:37:07;;;;;;;5.28;1.50;;;;;;;;;;5036059;28;20041;-38
2022/05/22 06:39:53;;;;;;;3.03;1.33;;;;;;;;;;5034712;28;20021;-38
2022/05/22 06:42:20;;;;;;;2.30;1.63;;;;;;;;;;5034477;28;20467;-38
2022/05/22 06:45:05;;;;;;;5.88;1.33;;;;;;;;;;5034923;28;20032;-38
2022/05/22 06:47:31;;;;;;;2.58;1.35;;;;;;;;;;5035363;28;20087;-39
2022/05/22 06:50:03;;;;;;;2.45;1.17;;;;;;;;;;5035644;28;20423;-38
2022/05/22 06:52:29;;;;;;;2.85;1.30;;;;;;;;;;5034286;28;20476;-38
2022/05/22 06:54:55;;;;;;;3.13;1.10;;;;;;;;;;5035721;28;20072;-38
2022/05/22 06:57:21;;;;;;;3.35;1.20;;;;;;;;;;5034569;28;20120;-37
2022/05/22 06:59:47;;;;;;;1.80;1.17;;;;;;;;;;5034517;28;20029;-38
2022/05/22 07:02:13;;;;;;;3.03;1.17;;;;;;;;;;5033635;28;20032;-38
2022/05/22 07:04:38;;;;;;;3.05;1.25;;;;;;;;;;5035672;28;20030;-37
2022/05/22 07:07:04;;;;;;;2.83;1.20;;;;;;;;;;5034109;28;20014;-37
2022/05/22 07:09:29;;;;;;;2.08;1.10;;;;;;;;;;5034071;28;20018;-37
2022/05/22 07:11:55;;;;;;;2.75;1.23;;;;;;;;;;5034277;28;20460;-38
2022/05/22 07:14:21;;;;;;;8.15;2.17;;;;;;;;;;5034000;28;20033;-38
2022/05/22 07:16:47;;;;;;;3.45;1.10;;;;;;;;;;5034072;28;20033;-37
2022/05/22 07:19:12;;;;;;;5.78;1.40;;;;;;;;;;5034067;28;20029;-38
2022/05/22 07:21:38;;;;;;;1.92;1.00;;;;;;;;;;5033907;28;20030;-38
2022/05/22 07:24:03;;;;;;;3.15;1.17;;;;;;;;;;5033656;28;20028;-40
2022/05/22 07:26:29;;;;;;;11.13;1.20;;;;;;;;;;5034076;28;20025;-39
2022/05/22 07:28:58;;;;;;;3.30;1.33;;;;;;;;;;5033941;28;20018;-39
2022/05/22 07:31:24;;;;;;;3.78;1.05;;;;;;;;;;5035042;28;20465;-39
2022/05/22 07:33:50;;;;;;;5.65;1.00;;;;;;;;;;5033466;28;20084;-38
2022/05/22 07:36:16;;;;;;;3.35;1.00;;;;;;;;;;5033461;28;20476;-39
2022/05/22 07:38:41;;;;;;;5.68;1.20;;;;;;;;;;5034774;28;20021;-39
2022/05/22 07:41:06;;;;;;;1.50;1.00;;;;;;;;;;5033825;28;20045;-38
2022/05/22 07:43:32;;;;;;;4.00;0.75;;;;;;;;;;5033634;28;20362;-38
2022/05/22 07:45:58;;;;;;;2.03;0.70;;;;;;;;;;5034764;28;20079;-38
2022/05/22 07:48:23;;;;;;;1.95;0.75;;;;;;;;;;5033489;28;20427;-37
2022/05/22 07:51:00;;;;;;;3.67;1.27;;;;;;;;;;5030055;28;20026;-38
2022/05/22 07:53:26;;;;;;;3.10;1.08;;;;;;;;;;5013457;28;20611;-38
2022/05/22 07:55:52;;;;;;;5.13;1.08;;;;;;;;;;5013737;28;20022;-39
2022/05/22 07:58:17;;;;;;;5.53;0.93;;;;;;;;;;5013575;28;20418;-39
2022/05/22 08:00:43;;;;;;;1.50;0.80;;;;;;;;;;5013491;28;20037;-39
2022/05/22 08:03:09;;;;;;;2.47;0.90;;;;;;;;;;5013376;28;20107;-39
2022/05/22 08:05:35;;;;;;;2.13;0.90;;;;;;;;;;5013450;28;20030;-39
2022/05/22 08:08:00;;;;;;;4.80;0.80;;;;;;;;;;5013219;28;20021;-39
2022/05/22 08:10:25;;;;;;;2.97;0.85;;;;;;;;;;5013341;28;20282;-39
2022/05/22 08:12:51;;;;;;;3.45;0.82;;;;;;;;;;5013792;28;20024;-39
2022/05/22 08:15:18;;;;;;;3.63;1.00;;;;;;;;;;5013067;28;20026;-39
2022/05/22 08:17:44;;;;;;;6.35;0.90;;;;;;;;;;5014373;28;20022;-39
2022/05/22 08:20:15;;;;;;;7.93;1.05;;;;;;;;;;5013037;28;20088;-39
2022/05/22 08:22:44;;;;;;;1.35;0.60;;;;;;;;;;5012946;28;20057;-40
2022/05/22 08:25:10;;;;;;;1.35;0.77;;;;;;;;;;5013277;28;20053;-39
2022/05/22 08:27:36;;;;;;;4.32;0.95;;;;;;;;;;5014556;28;20022;-39
2022/05/22 08:30:01;;;;;;;4.22;0.75;;;;;;;;;;5014247;28;20026;-39
2022/05/22 08:32:26;;;;;;;4.57;0.85;;;;;;;;;;5013976;28;20022;-40
2022/05/22 08:34:52;;;;;;;3.72;1.15;;;;;;;;;;5013713;28;20046;-40
2022/05/22 08:37:18;;;;;;;2.03;0.80;;;;;;;;;;5012618;28;20045;-39
2022/05/22 08:39:44;;;;;;;3.47;1.25;;;;;;;;;;5012917;28;20049;-39
2022/05/22 08:42:10;;;;;;;2.97;0.77;;;;;;;;;;5013995;28;20461;-39
2022/05/22 08:44:36;;;;;;;4.28;0.90;;;;;;;;;;5012658;28;20301;-39
2022/05/22 08:47:06;;;;;;;2.08;0.82;;;;;;;;;;5012595;28;20108;-39
2022/05/22 08:49:35;;;;;;;1.88;0.65;;;;;;;;;;5021695;28;20029;-40
2022/05/22 08:52:20;;;;;;;1.73;0.80;;;;;;;;;;5012753;28;20026;-39
2022/05/22 08:54:48;;;;;;;2.10;0.85;;;;;;;;;;5009566;28;20041;-39
2022/05/22 09:00:17;;;;;;;2.80;0.82;;;;;;;;;;5014329;28;20033;-39
2022/05/22 09:02:49;;;;;;;2.50;1.25;;;;;;;;;;5012445;28;20457;-39
2022/05/22 09:05:18;;;;;;;5.68;1.13;;;;;;;;;;5013993;28;20548;-39
2022/05/22 09:07:43;;;;;;;;;;;;;;;;;;5012847;28;20022;-39
2022/05/22 09:10:29;;;;;;;2.35;0.90;;;;;;;;;;5012150;28;19912;-39
2022/05/22 09:12:54;;;;;;;3.53;1.05;;;;;;;;;;5027977;28;20084;-39
2022/05/22 09:15:26;;;;;;;3.38;0.80;;;;;;;;;;5013471;28;20555;-39
2022/05/22 09:18:10;;;;;;;2.33;0.98;;;;;;;;;;5012220;28;20026;-39
2022/05/22 09:20:41;;;;;;;4.07;1.13;;;;;;;;;;5012095;28;20030;-39
2022/05/22 09:23:13;;;;;;;3.58;1.10;;;;;;;;;;5013077;28;20053;-39
2022/05/22 09:25:38;;;;;;;3.55;0.80;;;;;;;;;;5012917;28;20156;-39
2022/05/22 09:28:11;;;;;;;5.20;0.90;;;;;;;;;;5012139;28;20525;-39
2022/05/22 09:30:45;;;;;;;1.83;0.98;;;;;;;;;;5013431;28;20022;-39
2022/05/22 09:33:18;;;;;;;1.27;0.70;;;;;;;;;;5011730;28;20065;-40
2022/05/22 09:35:57;;;;;;;2.60;0.65;;;;;;;;;;5013048;28;20046;-39
2022/05/22 09:38:25;;;;;;;1.48;0.68;;;;;;;;;;5012029;28;20454;-40
2022/05/22 09:40:57;;;;;;;21.25;1.40;;;;;;;;;;5012067;28;20024;-40
2022/05/22 09:43:28;;;;;;;3.30;1.40;;;;;;;;;;5013118;28;20431;-40
2022/05/22 09:46:02;;;;;;;3.70;0.70;;;;;;;;;;5013015;28;20033;-40
2022/05/22 09:48:50;;;;;;;5.03;1.65;;;;;;;;;;5023825;28;20033;-39
2022/05/22 09:51:19;;;;;;;1.60;0.93;;;;;;;;;;5011993;28;20029;-40
2022/05/22 09:54:01;;;;;;;3.90;1.10;;;;;;;;;;5013008;28;20037;-40
2022/05/22 09:56:35;;;;;;;6.13;1.00;;;;;;;;;;5011697;28;20127;-40
2022/05/22 09:59:19;;;;;;;2.22;1.00;;;;;;;;;;5013142;28;20164;-40
2022/05/22 10:01:48;;;;;;;1.67;0.75;;;;;;;;;;5013161;28;20038;-40
2022/05/22 10:04:30;;;;;;;1.40;0.80;;;;;;;;;;5011710;28;20469;-40
2022/05/22 10:06:59;;;;;;;3.35;0.80;;;;;;;;;;5013148;28;20480;-40
2022/05/22 10:09:39;;;;;;;3.65;1.20;;;;;;;;;;5013092;28;20026;-40
2022/05/22 10:12:10;;;;;;;2.03;1.00;;;;;;;;;;5012687;28;20385;-40
2022/05/22 10:14:48;;;;;;;1.77;0.90;;;;;;;;;;5012959;28;20488;-40
2022/05/22 10:17:23;;;;;;;3.75;1.30;;;;;;;;;;5013082;28;20531;-40
2022/05/22 10:20:07;;;;;;;3.63;1.05;;;;;;;;;;5012787;28;20481;-39
2022/05/22 10:22:41;;;;;;;3.38;0.85;;;;;;;;;;5013139;28;20061;-40
2022/05/22 10:25:06;;;;;;;1.10;0.80;;;;;;;;;;5012648;28;20021;-40
2022/05/22 10:27:50;;;;;;;2.28;1.00;;;;;;;;;;5011312;28;20029;-40
2022/05/22 10:30:19;;;;;;;5.90;0.90;;;;;;;;;;5012502;28;20029;-40
2022/05/22 10:32:51;;;;;;;3.00;1.15;;;;;;;;;;5011316;28;20029;-40
2022/05/22 10:35:23;;;;;;;1.15;0.77;;;;;;;;;;5011338;28;20128;-40
2022/05/22 10:38:11;;;;;;;2.40;0.75;;;;;;;;;;5015574;28;20025;-40
2022/05/22 10:43:27;;;;;;;2.33;0.80;;;;;;;;;;5016207;28;20440;-40
2022/05/22 10:45:52;;;;;;;4.83;1.20;;;;;;;;;;5021865;28;20018;-40
2022/05/22 10:48:23;;;;;;;4.03;0.83;;;;;;;;;;5036125;28;20251;-40
2022/05/22 10:50:52;;;;;;;2.15;0.90;;;;;;;;;;5035597;28;20246;-40
2022/05/22 10:53:25;;;;;;;2.53;0.90;;;;;;;;;;5035660;28;20028;-40
2022/05/22 10:55:52;;;;;;;4.05;1.08;;;;;;;;;;5035650;28;20036;-40
2022/05/22 10:58:28;;;;;;;2.92;0.82;;;;;;;;;;5035533;28;20033;-40
2022/05/22 11:00:58;;;;;;;2.60;0.70;;;;;;;;;;5034307;28;20063;-40
2022/05/22 11:03:26;;;;;;;4.32;0.98;;;;;;;;;;5035467;28;20112;-40
2022/05/22 11:05:51;;;;;;;3.97;0.80;;;;;;;;;;5035681;28;20044;-40
2022/05/22 11:08:24;;;;;;;3.80;0.80;;;;;;;;;;5034102;28;20033;-41
2022/05/22 11:10:49;;;;;;;7.22;0.90;;;;;;;;;;5034210;28;20470;-40
2022/05/22 11:13:20;;;;;;;1.48;0.80;;;;;;;;;;5035410;28;20108;-40
2022/05/22 11:15:45;;;;;;;2.30;0.80;;;;;;;;;;5035278;28;20022;-40
2022/05/22 11:18:11;;;;;;;2.15;0.80;;;;;;;;;;5033918;28;20464;-40
2022/05/22 11:20:57;;;;;;;3.63;0.88;;;;;;;;;;5033892;28;20036;-40
2022/05/22 11:23:31;;;;;;;3.70;0.95;;;;;;;;;;5035158;28;20135;-40
2022/05/22 11:26:00;;;;;;;1.98;0.73;;;;;;;;;;5035252;28;20037;-40
2022/05/22 11:28:31;;;;;;;2.17;0.70;;;;;;;;;;5034835;28;20083;-40
2022/05/22 11:31:00;;;;;;;2.05;0.90;;;;;;;;;;5034983;28;20025;-40
2022/05/22 11:33:32;;;;;;;6.57;1.00;;;;;;;;;;5034790;28;20045;-40
2022/05/22 11:36:16;;;;;;;3.92;1.00;;;;;;;;;;5034984;28;20415;-40
2022/05/22 11:38:44;;;;;;;6.75;1.10;;;;;;;;;;5035137;28;20096;-40
2022/05/22 11:41:32;;;;;;;3.28;0.85;;;;;;;;;;5033411;28;20025;-40
2022/05/22 11:43:57;;;;;;;2.47;0.80;;;;;;;;;;5035088;28;20115;-40
2022/05/22 11:46:46;;;;;;;1.75;0.80;;;;;;;;;;5034759;28;20098;-40
2022/05/22 11:49:23;;;;;;;3.40;0.95;;;;;;;;;;5030150;28;20083;-40
2022/05/22 11:51:54;;;;;;;3.63;0.70;;;;;;;;;;5034593;28;20030;-40
2022/05/22 11:54:25;;;;;;;2.60;0.80;;;;;;;;;;5034743;28;20181;-40
2022/05/22 11:56:59;;;;;;;4.85;0.80;;;;;;;;;;5034521;28;20052;-40
2022/05/22 11:59:32;;;;;;;5.93;0.70;;;;;;;;;;5033216;28;20033;-40
2022/05/22 12:02:10;;;;;;;5.57;0.80;;;;;;;;;;5033381;28;20087;-40
2022/05/22 12:05:02;;;;;;;2.97;1.02;;;;;;;;;;5034628;28;20025;-40
2022/05/22 12:07:36;;;;;;;3.10;1.00;;;;;;;;;;5033233;28;20027;-41
2022/05/22 12:10:12;;;;;;;1.98;0.80;;;;;;;;;;5032986;28;20036;-41
2022/05/22 12:12:37;;;;;;;1.38;0.90;;;;;;;;;;5034157;28;20033;-40
2022/05/22 12:15:15;;;;;;;6.68;0.70;;;;;;;;;;5033170;28;20388;-41
2022/05/22 12:17:53;;;;;;;4.93;1.13;;;;;;;;;;5033027;28;20048;-40
2022/05/22 12:20:25;;;;;;;3.30;0.90;;;;;;;;;;5032954;28;20025;-41
2022/05/22 12:23:13;;;;;;;1.30;0.73;;;;;;;;;;5032639;28;20025;-40
2022/05/22 12:25:42;;;;;;;5.80;1.98;;;;;;;;;;5032805;28;20033;-40
2022/05/22 12:28:19;;;;;;;2.53;1.10;;;;;;;;;;5034109;28;20033;-40
2022/05/22 12:30:45;;;;;;;1.58;0.65;;;;;;;;;;5032507;28;20031;-41
2022/05/22 12:33:12;;;;;;;13.07;1.42;;;;;;;;;;5033527;28;20036;-41
2022/05/22 12:35:39;;;;;;;3.78;0.85;;;;;;;;;;5032374;28;20037;-40
2022/05/22 12:38:06;;;;;;;5.95;0.82;;;;;;;;;;5032589;28;20080;-40
2022/05/22 12:40:38;;;;;;;2.45;1.08;;;;;;;;;;5032662;28;20031;-41
2022/05/22 12:43:04;;;;;;;5.63;0.90;;;;;;;;;;5029322;28;20025;-41
2022/05/22 12:45:30;;;;;;;1.85;0.88;;;;;;;;;;5045738;28;20014;-41
2022/05/22 12:48:07;;;;;;;5.10;1.15;;;;;;;;;;5045403;28;20022;-41
2022/05/22 12:50:45;;;;;;;2.55;0.70;;;;;;;;;;5014131;28;20049;-40
2022/05/22 12:53:40;;;;;;;3.22;1.00;;;;;;;;;;5045609;28;20529;-41
2022/05/22 12:56:24;;;;;;;6.70;1.20;;;;;;;;;;5036628;28;20037;-42
2022/05/22 12:58:51;;;;;;;3.45;0.98;;;;;;;;;;5013498;28;20113;-41
2022/05/22 13:01:37;;;;;;;2.45;0.73;;;;;;;;;;5045175;28;20049;-41
2022/05/22 13:04:15;;;;;;;3.58;0.80;;;;;;;;;;5013749;28;20033;-41
2022/05/22 13:06:50;;;;;;;3.22;1.02;;;;;;;;;;5012046;28;20021;-41
2022/05/22 13:09:24;;;;;;;3.08;1.40;;;;;;;;;;5013486;28;20473;-41
2022/05/22 13:11:56;;;;;;;1.45;0.65;;;;;;;;;;5012258;28;20029;-41
2022/05/22 13:14:34;;;;;;;3.08;0.60;;;;;;;;;;5045358;28;20033;-41
2022/05/22 13:17:00;;;;;;;10.80;1.23;;;;;;;;;;5013259;28;20492;-39
2022/05/22 13:19:27;;;;;;;6.47;1.20;;;;;;;;;;5013247;28;20018;-40
2022/05/22 13:21:53;;;;;;;1.83;0.70;;;;;;;;;;5012314;28;20021;-39
2022/05/22 13:24:18;;;;;;;2.75;0.82;;;;;;;;;;5045016;28;20463;-40
2022/05/22 13:27:04;;;;;;;2.78;1.02;;;;;;;;;;5012115;28;20022;-40
2022/05/22 13:29:41;;;;;;;2.30;0.75;;;;;;;;;;5045095;28;20030;-39
2022/05/22 13:32:12;;;;;;;9.93;1.67;;;;;;;;;;5045286;28;20117;-40
2022/05/22 13:34:38;;;;;;;1.25;1.15;;;;;;;;;;5044705;28;20056;-40
2022/05/22 13:37:08;;;;;;;6.05;1.38;;;;;;;;;;5013160;28;20026;-40
2022/05/22 13:39:53;;;;;;;5.53;0.90;;;;;;;;;;5045035;28;20045;-41
2022/05/22 13:42:45;;;;;;;3.08;0.80;;;;;;;;;;5022717;28;20029;-40
2022/05/22 13:45:49;;;;;;;1.85;1.00;;;;;;;;;;5031701;28;20036;-40
2022/05/22 13:48:17;;;;;;;5.50;1.42;;;;;;;;;;5010789;28;20022;-40
2022/05/22 13:53:45;;;;;;;4.10;1.20;;;;;;;;;;5024758;28;20345;-40
2022/05/22 13:56:14;;;;;;;6.82;1.52;;;;;;;;;;5031362;28;20025;-40
2022/05/22 13:58:41;;;;;;;7.32;0.90;;;;;;;;;;5031238;28;20113;-40
2022/05/22 14:01:14;;;;;;;4.30;1.23;;;;;;;;;;5031229;28;20018;-40
2022/05/22 14:03:46;;;;;;;4.93;0.90;;;;;;;;;;5031478;28;20549;-40
2022/05/22 14:06:14;;;;;;;1.85;0.88;;;;;;;;;;5032666;28;20060;-41
2022/05/22 14:08:42;;;;;;;2.00;1.13;;;;;;;;;;5031465;28;20032;-42
2022/05/22 14:11:12;;;;;;;3.08;1.10;;;;;;;;;;5034326;28;20026;-41
2022/05/22 14:13:48;;;;;;;3.05;1.00;;;;;;;;;;5035181;28;20065;-41
2022/05/22 14:16:19;;;;;;;2.47;0.90;;;;;;;;;;5035453;28;20025;-41
2022/05/22 14:18:56;;;;;;;2.67;0.80;;;;;;;;;;5035344;28;20063;-41
2022/05/22 14:21:21;;;;;;;5.10;0.95;;;;;;;;;;5035241;28;20021;-41
2022/05/22 14:26:31;;;;;;;1.40;0.80;;;;;;;;;;5036546;28;20116;-42
2022/05/22 14:28:57;;;;;;;1.67;0.75;;;;;;;;;;5036172;28;20064;-42
2022/05/22 14:31:26;;;;;;;16.00;0.82;;;;;;;;;;5034911;28;20068;-41
2022/05/22 14:33:51;;;;;;;;;;;;;;;;;;5034971;28;20077;-41
2022/05/22 14:36:21;;;;;;;3.73;0.93;;;;;;;;;;5034949;28;19948;-41
2022/05/22 14:38:48;;;;;;;5.60;0.80;;;;;;;;;;5034619;28;20794;-41
2022/05/22 14:41:19;;;;;;;3.65;0.95;;;;;;;;;;5031437;28;20026;-41
2022/05/22 14:43:51;;;;;;;2.78;1.17;;;;;;;;;;5014942;28;20498;-41
2022/05/22 14:46:40;;;;;;;1.83;0.90;;;;;;;;;;5016184;28;20053;-41
2022/05/22 14:49:13;;;;;;;4.93;0.90;;;;;;;;;;5014641;28;20023;-44
2022/05/22 14:51:41;;;;;;;2.00;0.85;;;;;;;;;;5015028;28;20026;-40
2022/05/22 14:54:06;;;;;;;2.10;0.85;;;;;;;;;;5014919;28;20389;-41
2022/05/22 14:56:32;;;;;;;1.92;0.98;;;;;;;;;;5014794;28;20026;-41
2022/05/22 14:59:04;;;;;;;26.83;1.83;;;;;;;;;;5014610;28;20022;-41
2022/05/22 15:01:39;;;;;;;1.63;1.00;;;;;;;;;;5014571;28;20018;-41
2022/05/22 15:04:11;;;;;;;3.63;1.05;;;;;;;;;;5014423;28;20021;-41
2022/05/22 15:06:47;;;;;;;3.35;1.02;;;;;;;;;;5014665;28;20080;-41
2022/05/22 15:09:22;;;;;;;4.18;1.00;;;;;;;;;;5014420;28;20032;-42
2022/05/22 15:11:48;;;;;;;5.65;0.98;;;;;;;;;;5015645;28;20022;-41